Star Hyperion — 3FDK6 — position and weather

sailwx.info

Track history (hours):
 
Tides and Currents Weather Stations Pressure Air Temp Water Temp Dewpoint Dewpoint Depression Visibility Wind Speed Wind Dir Waves Ship Positions

Star Hyperion

Last reported at 2017-Sep-21 01:44 UTC. Time now 2017-Sep-22 04:37 UTC.
Position N 36°45' E 000°02'.

Length 190 m; draft 10.8 m.

Type: Cargo ship. MMSI: 356370000.

Date/timePositionNaut miles runAvg speedWind from/ knotsBaromVisibWave heightAir tempDewpointWater temp
2017-Sep-21 01:44N 36°45' E 000°02'313.0
2017-Sep-21 01:30N 36°46' E 000°06'612.3
2017-Sep-21 01:00N 36°47' E 000°13'612.5
2017-Sep-21 00:30N 36°48' E 000°21'713.9
2017-Sep-21 00:00N 36°50' E 000°29'813.1
2017-Sep-20 23:24N 36°52' E 000°39'4 9.9
2017-Sep-20 23:00N 36°53' E 000°44'612.5
2017-Sep-20 22:30N 36°53' E 000°52'1212.5
2017-Sep-20 21:33N 36°55' E 001°06'4612.9
2017-Sep-20 17:59N 37°03' E 002°03'47711.3
2017-Sep-18 23:37N 37°28' E 012°01'111.3
2017-Sep-18 23:30N 37°28' E 012°03'611.2
2017-Sep-18 23:00N 37°25' E 012°09'1411.1
2017-Sep-18 21:44N 37°17' E 012°23'311.0
2017-Sep-18 21:29N 37°15' E 012°26'511.3
2017-Sep-18 21:00N 37°12' E 012°32'611.5
2017-Sep-18 20:30N 37°09' E 012°38'611.4
2017-Sep-18 20:00N 37°06' E 012°44'511.2
2017-Sep-18 19:30N 37°04' E 012°50'611.3
2017-Sep-18 19:00N 37°02' E 012°57'611.3
2017-Sep-18 18:30N 36°60' E 013°04'611.5
2017-Sep-18 18:00N 36°57' E 013°10'611.6
2017-Sep-18 17:30N 36°55' E 013°17'611.4
2017-Sep-18 17:00N 36°53' E 013°24'611.0
2017-Sep-18 16:29N 36°51' E 013°30'510.7
2017-Sep-18 16:00N 36°49' E 013°36'610.7
2017-Sep-18 15:28N 36°46' E 013°43'810.6
2017-Sep-18 14:44N 36°43' E 013°51'510.6
2017-Sep-18 14:15N 36°42' E 013°57'510.5
2017-Sep-18 13:49N 36°40' E 014°03'410.6
2017-Sep-18 13:26N 36°39' E 014°07'510.6
2017-Sep-18 13:00N 36°37' E 014°13'710.7
2017-Sep-18 12:19N 36°34' E 014°21'411.0
2017-Sep-18 11:56N 36°32' E 014°26'611.6
2017-Sep-18 11:26N 36°30' E 014°33'25411.7
2017-Sep-17 13:38N 36°23' E 019°48'111.2
2017-Sep-17 13:30N 36°23' E 019°50'611.4
2017-Sep-17 13:00N 36°23' E 019°57'2312.0
2017-Sep-17 11:06N 36°23' E 020°26'1012.5
2017-Sep-17 10:19N 36°23' E 020°38'411.8
2017-Sep-17 10:00N 36°23' E 020°43'2211.4
2017-Sep-17 08:04N 36°23' E 021°10'111.2
2017-Sep-17 08:00N 36°23' E 021°11'611.3
2017-Sep-17 07:30N 36°23' E 021°18'711.1
2017-Sep-17 06:54N 36°22' E 021°26'410.9
2017-Sep-17 06:30N 36°22' E 021°31'510.8
2017-Sep-17 06:00N 36°22' E 021°38'910.6
2017-Sep-17 05:07N 36°23' E 021°50'110.7
2017-Sep-17 05:00N 36°22' E 021°51'610.8
2017-Sep-17 04:29N 36°22' E 021°58'510.8
2017-Sep-17 04:00N 36°22' E 022°05'710.9
2017-Sep-17 03:24N 36°22' E 022°13'3611.6
2017-Sep-17 00:17N 36°26' E 022°58'311.9
2017-Sep-17 00:00N 36°25' E 023°02'611.8
2017-Sep-16 23:30N 36°25' E 023°09'510.4
2017-Sep-16 23:00N 36°27' E 023°14'611.6
2017-Sep-16 22:30N 36°33' E 023°17'611.7
2017-Sep-16 22:00N 36°38' E 023°19'611.8
2017-Sep-16 21:30N 36°44' E 023°20'611.8
2017-Sep-16 21:00N 36°50' E 023°22'612.0
2017-Sep-16 20:30N 36°56' E 023°25'1211.8
2017-Sep-16 19:29N 37°05' E 023°34'811.3
2017-Sep-16 18:47N 37°11' E 023°41'14311.6
2017-Sep-16 06:27N 39°11' E 025°20'511.8
2017-Sep-16 06:00N 39°16' E 025°22'611.8
2017-Sep-16 05:30N 39°21' E 025°25'1111.8
2017-Sep-16 04:36N 39°30' E 025°33'111.8
2017-Sep-16 04:30N 39°31' E 025°34'193 8.3
2017-Sep-15 05:18N 41°26' E 028°58'0 0.1
2017-Sep-15 05:00N 41°26' E 028°58'1 2.0
2017-Sep-15 04:24N 41°26' E 028°57'7 6.5
2017-Sep-15 03:16N 41°24' E 028°48'0 0.5
2017-Sep-15 02:56N 41°24' E 028°48'0 0.5
2017-Sep-15 02:28N 41°24' E 028°48'0 0.5
2017-Sep-15 01:42N 41°24' E 028°48'0 0.5
2017-Sep-15 01:30N 41°24' E 028°49'0 0.5
2017-Sep-15 01:00N 41°24' E 028°49'0 0.5
2017-Sep-15 00:31N 41°24' E 028°49'0 0.5
2017-Sep-15 00:00N 41°24' E 028°49'0 0.4
2017-Sep-14 23:30N 41°25' E 028°50'0 0.4
2017-Sep-14 23:00N 41°25' E 028°50'0 0.4
2017-Sep-14 22:30N 41°25' E 028°50'0 0.4
2017-Sep-14 22:00N 41°25' E 028°50'0 0.4
2017-Sep-14 21:31N 41°25' E 028°50'0 0.3
2017-Sep-14 21:00N 41°25' E 028°51'1 0.3
2017-Sep-14 18:36N 41°25' E 028°52'0 0.4
2017-Sep-14 18:30N 41°25' E 028°52'0 0.4
2017-Sep-14 18:00N 41°25' E 028°52'0 0.5
2017-Sep-14 17:30N 41°25' E 028°52'0 0.5
2017-Sep-14 17:00N 41°25' E 028°53'0 0.5
2017-Sep-14 16:20N 41°25' E 028°53'0 0.5
2017-Sep-14 16:00N 41°25' E 028°53'0 0.5
2017-Sep-14 15:31N 41°25' E 028°53'0 0.5
2017-Sep-14 15:00N 41°25' E 028°54'0 0.6
2017-Sep-14 14:30N 41°25' E 028°54'0 0.6
2017-Sep-14 14:00N 41°25' E 028°55'0 0.6
2017-Sep-14 13:29N 41°25' E 028°55'0 0.6
2017-Sep-14 13:00N 41°25' E 028°55'0 0.6
2017-Sep-14 12:30N 41°25' E 028°56'0 0.6
2017-Sep-14 12:00N 41°25' E 028°56'0 0.7
2017-Sep-14 11:29N 41°25' E 028°56'0 0.7
2017-Sep-14 11:00N 41°26' E 028°57'0 0.7
2017-Sep-14 10:28N 41°26' E 028°57'  
Track history (hours):
 
Tides and Currents Weather Stations Pressure Air Temp Water Temp Dewpoint Dewpoint Depression Visibility Wind Speed Wind Dir Waves Ship Positions

Star Hyperion

Last reported at 2017-Sep-21 01:44 UTC. Time now 2017-Sep-22 04:37 UTC.
Position N 36°45' E 000°02'.

Length 190 m; draft 10.8 m.

Type: Cargo ship. MMSI: 356370000.

Date/timePositionNaut miles runAvg speedWind from/ knotsBaromVisibWave heightAir tempDewpointWater temp
2017-Sep-21 01:44N 36°45' E 000°02'313.0
2017-Sep-21 01:30N 36°46' E 000°06'612.3
2017-Sep-21 01:00N 36°47' E 000°13'612.5
2017-Sep-21 00:30N 36°48' E 000°21'713.9
2017-Sep-21 00:00N 36°50' E 000°29'813.1
2017-Sep-20 23:24N 36°52' E 000°39'4 9.9
2017-Sep-20 23:00N 36°53' E 000°44'612.5
2017-Sep-20 22:30N 36°53' E 000°52'1212.5
2017-Sep-20 21:33N 36°55' E 001°06'4612.9
2017-Sep-20 17:59N 37°03' E 002°03'47711.3
2017-Sep-18 23:37N 37°28' E 012°01'111.3
2017-Sep-18 23:30N 37°28' E 012°03'611.2
2017-Sep-18 23:00N 37°25' E 012°09'1411.1
2017-Sep-18 21:44N 37°17' E 012°23'311.0
2017-Sep-18 21:29N 37°15' E 012°26'511.3
2017-Sep-18 21:00N 37°12' E 012°32'611.5
2017-Sep-18 20:30N 37°09' E 012°38'611.4
2017-Sep-18 20:00N 37°06' E 012°44'511.2
2017-Sep-18 19:30N 37°04' E 012°50'611.3
2017-Sep-18 19:00N 37°02' E 012°57'611.3
2017-Sep-18 18:30N 36°60' E 013°04'611.5
2017-Sep-18 18:00N 36°57' E 013°10'611.6
2017-Sep-18 17:30N 36°55' E 013°17'611.4
2017-Sep-18 17:00N 36°53' E 013°24'611.0
2017-Sep-18 16:29N 36°51' E 013°30'510.7
2017-Sep-18 16:00N 36°49' E 013°36'610.7
2017-Sep-18 15:28N 36°46' E 013°43'810.6
2017-Sep-18 14:44N 36°43' E 013°51'510.6
2017-Sep-18 14:15N 36°42' E 013°57'510.5
2017-Sep-18 13:49N 36°40' E 014°03'410.6
2017-Sep-18 13:26N 36°39' E 014°07'510.6
2017-Sep-18 13:00N 36°37' E 014°13'710.7
2017-Sep-18 12:19N 36°34' E 014°21'411.0
2017-Sep-18 11:56N 36°32' E 014°26'611.6
2017-Sep-18 11:26N 36°30' E 014°33'25411.7
2017-Sep-17 13:38N 36°23' E 019°48'111.2
2017-Sep-17 13:30N 36°23' E 019°50'611.4
2017-Sep-17 13:00N 36°23' E 019°57'2312.0
2017-Sep-17 11:06N 36°23' E 020°26'1012.5
2017-Sep-17 10:19N 36°23' E 020°38'411.8
2017-Sep-17 10:00N 36°23' E 020°43'2211.4
2017-Sep-17 08:04N 36°23' E 021°10'111.2
2017-Sep-17 08:00N 36°23' E 021°11'611.3
2017-Sep-17 07:30N 36°23' E 021°18'711.1
2017-Sep-17 06:54N 36°22' E 021°26'410.9
2017-Sep-17 06:30N 36°22' E 021°31'510.8
2017-Sep-17 06:00N 36°22' E 021°38'910.6
2017-Sep-17 05:07N 36°23' E 021°50'110.7
2017-Sep-17 05:00N 36°22' E 021°51'610.8
2017-Sep-17 04:29N 36°22' E 021°58'510.8
2017-Sep-17 04:00N 36°22' E 022°05'710.9
2017-Sep-17 03:24N 36°22' E 022°13'3611.6
2017-Sep-17 00:17N 36°26' E 022°58'311.9
2017-Sep-17 00:00N 36°25' E 023°02'611.8
2017-Sep-16 23:30N 36°25' E 023°09'510.4
2017-Sep-16 23:00N 36°27' E 023°14'611.6
2017-Sep-16 22:30N 36°33' E 023°17'611.7
2017-Sep-16 22:00N 36°38' E 023°19'611.8
2017-Sep-16 21:30N 36°44' E 023°20'611.8
2017-Sep-16 21:00N 36°50' E 023°22'612.0
2017-Sep-16 20:30N 36°56' E 023°25'1211.8
2017-Sep-16 19:29N 37°05' E 023°34'811.3
2017-Sep-16 18:47N 37°11' E 023°41'14311.6
2017-Sep-16 06:27N 39°11' E 025°20'511.8
2017-Sep-16 06:00N 39°16' E 025°22'611.8
2017-Sep-16 05:30N 39°21' E 025°25'1111.8
2017-Sep-16 04:36N 39°30' E 025°33'111.8
2017-Sep-16 04:30N 39°31' E 025°34'193 8.3
2017-Sep-15 05:18N 41°26' E 028°58'0 0.1
2017-Sep-15 05:00N 41°26' E 028°58'1 2.0
2017-Sep-15 04:24N 41°26' E 028°57'7 6.5
2017-Sep-15 03:16N 41°24' E 028°48'0 0.5
2017-Sep-15 02:56N 41°24' E 028°48'0 0.5
2017-Sep-15 02:28N 41°24' E 028°48'0 0.5
2017-Sep-15 01:42N 41°24' E 028°48'0 0.5
2017-Sep-15 01:30N 41°24' E 028°49'0 0.5
2017-Sep-15 01:00N 41°24' E 028°49'0 0.5
2017-Sep-15 00:31N 41°24' E 028°49'0 0.5
2017-Sep-15 00:00N 41°24' E 028°49'0 0.4
2017-Sep-14 23:30N 41°25' E 028°50'0 0.4
2017-Sep-14 23:00N 41°25' E 028°50'0 0.4
2017-Sep-14 22:30N 41°25' E 028°50'0 0.4
2017-Sep-14 22:00N 41°25' E 028°50'0 0.4
2017-Sep-14 21:31N 41°25' E 028°50'0 0.3
2017-Sep-14 21:00N 41°25' E 028°51'1 0.3
2017-Sep-14 18:36N 41°25' E 028°52'0 0.4
2017-Sep-14 18:30N 41°25' E 028°52'0 0.4
2017-Sep-14 18:00N 41°25' E 028°52'0 0.5
2017-Sep-14 17:30N 41°25' E 028°52'0 0.5
2017-Sep-14 17:00N 41°25' E 028°53'0 0.5
2017-Sep-14 16:20N 41°25' E 028°53'0 0.5
2017-Sep-14 16:00N 41°25' E 028°53'0 0.5
2017-Sep-14 15:31N 41°25' E 028°53'0 0.5
2017-Sep-14 15:00N 41°25' E 028°54'0 0.6
2017-Sep-14 14:30N 41°25' E 028°54'0 0.6
2017-Sep-14 14:00N 41°25' E 028°55'0 0.6
2017-Sep-14 13:29N 41°25' E 028°55'0 0.6
2017-Sep-14 13:00N 41°25' E 028°55'0 0.6
2017-Sep-14 12:30N 41°25' E 028°56'0 0.6
2017-Sep-14 12:00N 41°25' E 028°56'0 0.7
2017-Sep-14 11:29N 41°25' E 028°56'0 0.7
2017-Sep-14 11:00N 41°26' E 028°57'0 0.7
2017-Sep-14 10:28N 41°26' E 028°57'  

Dump ship's entire track history